sensor_id;sensor_type;location;lat;lon;timestamp;P1;durP1;ratioP1;P2;durP2;ratioP2
4355;SDS011;64374;51.482;7.408;2022-12-18T00:00:38;20.67;;;9.77;;
4355;SDS011;64374;51.482;7.408;2022-12-18T00:03:08;17.43;;;8.97;;
4355;SDS011;64374;51.482;7.408;2022-12-18T00:05:45;10.83;;;7.23;;
4355;SDS011;64374;51.482;7.408;2022-12-18T00:08:16;13.67;;;7.40;;
4355;SDS011;64374;51.482;7.408;2022-12-18T00:10:45;11.70;;;7.37;;
4355;SDS011;64374;51.482;7.408;2022-12-18T00:13:14;12.67;;;6.70;;
4355;SDS011;64374;51.482;7.408;2022-12-18T00:15:43;11.67;;;6.50;;
4355;SDS011;64374;51.482;7.408;2022-12-18T00:18:11;10.27;;;6.83;;
4355;SDS011;64374;51.482;7.408;2022-12-18T00:20:46;13.57;;;6.23;;
4355;SDS011;64374;51.482;7.408;2022-12-18T00:23:17;11.60;;;6.67;;
4355;SDS011;64374;51.482;7.408;2022-12-18T00:25:45;15.03;;;6.60;;
4355;SDS011;64374;51.482;7.408;2022-12-18T00:28:25;10.13;;;5.97;;
4355;SDS011;64374;51.482;7.408;2022-12-18T00:30:59;10.50;;;5.90;;
4355;SDS011;64374;51.482;7.408;2022-12-18T00:33:28;11.90;;;7.03;;
4355;SDS011;64374;51.482;7.408;2022-12-18T00:35:59;11.50;;;6.33;;
4355;SDS011;64374;51.482;7.408;2022-12-18T00:38:32;11.10;;;5.87;;
4355;SDS011;64374;51.482;7.408;2022-12-18T00:41:02;10.87;;;5.67;;
4355;SDS011;64374;51.482;7.408;2022-12-18T00:43:31;13.13;;;6.17;;
4355;SDS011;64374;51.482;7.408;2022-12-18T00:46:01;15.40;;;7.00;;
4355;SDS011;64374;51.482;7.408;2022-12-18T00:48:32;10.10;;;5.60;;
4355;SDS011;64374;51.482;7.408;2022-12-18T00:51:00;9.83;;;3.70;;
4355;SDS011;64374;51.482;7.408;2022-12-18T00:53:29;8.80;;;4.97;;
4355;SDS011;64374;51.482;7.408;2022-12-18T00:56:05;7.47;;;4.73;;
4355;SDS011;64374;51.482;7.408;2022-12-18T00:58:33;12.27;;;5.63;;
4355;SDS011;64374;51.482;7.408;2022-12-18T01:01:05;12.80;;;6.10;;
4355;SDS011;64374;51.482;7.408;2022-12-18T01:03:42;11.50;;;5.37;;
4355;SDS011;64374;51.482;7.408;2022-12-18T01:06:13;10.83;;;6.50;;
4355;SDS011;64374;51.482;7.408;2022-12-18T01:08:42;14.47;;;8.53;;
4355;SDS011;64374;51.482;7.408;2022-12-18T01:11:16;14.17;;;7.90;;
4355;SDS011;64374;51.482;7.408;2022-12-18T01:13:47;16.17;;;7.57;;
4355;SDS011;64374;51.482;7.408;2022-12-18T01:16:16;19.17;;;8.33;;
4355;SDS011;64374;51.482;7.408;2022-12-18T01:18:45;16.17;;;8.70;;
4355;SDS011;64374;51.482;7.408;2022-12-18T01:21:15;16.33;;;8.57;;
4355;SDS011;64374;51.482;7.408;2022-12-18T01:23:44;18.97;;;8.20;;
4355;SDS011;64374;51.482;7.408;2022-12-18T01:26:16;19.70;;;8.30;;
4355;SDS011;64374;51.482;7.408;2022-12-18T01:28:45;15.43;;;7.30;;
4355;SDS011;64374;51.482;7.408;2022-12-18T01:31:15;14.13;;;7.20;;
4355;SDS011;64374;51.482;7.408;2022-12-18T01:33:48;13.30;;;6.70;;
4355;SDS011;64374;51.482;7.408;2022-12-18T01:36:19;11.40;;;6.70;;
4355;SDS011;64374;51.482;7.408;2022-12-18T01:38:49;9.23;;;5.03;;
4355;SDS011;64374;51.482;7.408;2022-12-18T01:41:20;12.33;;;7.07;;
4355;SDS011;64374;51.482;7.408;2022-12-18T01:43:51;11.23;;;6.40;;
4355;SDS011;64374;51.482;7.408;2022-12-18T01:46:29;10.17;;;5.43;;
4355;SDS011;64374;51.482;7.408;2022-12-18T01:48:59;11.10;;;5.83;;
4355;SDS011;64374;51.482;7.408;2022-12-18T01:51:31;10.67;;;5.97;;
4355;SDS011;64374;51.482;7.408;2022-12-18T01:54:03;11.17;;;5.47;;
4355;SDS011;64374;51.482;7.408;2022-12-18T01:56:37;10.50;;;5.67;;
4355;SDS011;64374;51.482;7.408;2022-12-18T01:59:05;8.03;;;4.90;;
4355;SDS011;64374;51.482;7.408;2022-12-18T02:01:40;9.07;;;5.63;;
4355;SDS011;64374;51.482;7.408;2022-12-18T02:04:18;12.63;;;5.57;;
4355;SDS011;64374;51.482;7.408;2022-12-18T02:06:49;10.80;;;5.43;;
4355;SDS011;64374;51.482;7.408;2022-12-18T02:09:31;9.90;;;5.03;;
4355;SDS011;64374;51.482;7.408;2022-12-18T02:12:10;10.50;;;4.93;;
4355;SDS011;64374;51.482;7.408;2022-12-18T02:14:44;10.27;;;6.20;;
4355;SDS011;64374;51.482;7.408;2022-12-18T02:17:18;10.50;;;5.67;;
4355;SDS011;64374;51.482;7.408;2022-12-18T02:19:53;8.67;;;5.07;;
4355;SDS011;64374;51.482;7.408;2022-12-18T02:22:39;13.07;;;6.30;;
4355;SDS011;64374;51.482;7.408;2022-12-18T02:25:14;11.77;;;5.60;;
4355;SDS011;64374;51.482;7.408;2022-12-18T02:28:03;9.80;;;5.20;;
4355;SDS011;64374;51.482;7.408;2022-12-18T02:30:35;8.07;;;5.37;;
4355;SDS011;64374;51.482;7.408;2022-12-18T02:33:08;8.87;;;6.23;;
4355;SDS011;64374;51.482;7.408;2022-12-18T02:35:38;9.40;;;5.50;;
4355;SDS011;64374;51.482;7.408;2022-12-18T02:38:08;7.43;;;5.13;;
4355;SDS011;64374;51.482;7.408;2022-12-18T02:40:40;8.30;;;3.70;;
4355;SDS011;64374;51.482;7.408;2022-12-18T02:43:15;4.63;;;3.40;;
4355;SDS011;64374;51.482;7.408;2022-12-18T02:45:47;5.80;;;3.00;;
4355;SDS011;64374;51.482;7.408;2022-12-18T02:48:21;5.30;;;3.43;;
4355;SDS011;64374;51.482;7.408;2022-12-18T02:50:57;6.20;;;2.60;;
4355;SDS011;64374;51.482;7.408;2022-12-18T02:53:33;4.70;;;2.33;;
4355;SDS011;64374;51.482;7.408;2022-12-18T02:56:13;2.73;;;2.40;;
4355;SDS011;64374;51.482;7.408;2022-12-18T02:58:51;3.70;;;2.33;;
4355;SDS011;64374;51.482;7.408;2022-12-18T03:01:49;5.23;;;2.70;;
4355;SDS011;64374;51.482;7.408;2022-12-18T03:04:26;2.60;;;2.27;;
4355;SDS011;64374;51.482;7.408;2022-12-18T03:07:01;4.67;;;2.43;;
4355;SDS011;64374;51.482;7.408;2022-12-18T03:09:36;4.10;;;2.10;;
4355;SDS011;64374;51.482;7.408;2022-12-18T03:12:07;4.70;;;2.20;;
4355;SDS011;64374;51.482;7.408;2022-12-18T03:14:59;5.30;;;2.83;;
4355;SDS011;64374;51.482;7.408;2022-12-18T03:17:32;2.83;;;1.83;;
4355;SDS011;64374;51.482;7.408;2022-12-18T03:20:03;4.63;;;2.40;;
4355;SDS011;64374;51.482;7.408;2022-12-18T03:22:36;3.23;;;2.10;;
4355;SDS011;64374;51.482;7.408;2022-12-18T03:25:07;4.67;;;2.73;;
4355;SDS011;64374;51.482;7.408;2022-12-18T03:27:45;3.70;;;2.00;;
4355;SDS011;64374;51.482;7.408;2022-12-18T03:30:20;3.63;;;3.00;;
4355;SDS011;64374;51.482;7.408;2022-12-18T03:32:50;4.20;;;2.40;;
4355;SDS011;64374;51.482;7.408;2022-12-18T03:35:29;3.60;;;2.47;;
4355;SDS011;64374;51.482;7.408;2022-12-18T03:37:59;3.67;;;2.73;;
4355;SDS011;64374;51.482;7.408;2022-12-18T03:40:29;4.87;;;2.80;;
4355;SDS011;64374;51.482;7.408;2022-12-18T03:43:06;6.33;;;3.53;;
4355;SDS011;64374;51.482;7.408;2022-12-18T03:45:41;4.47;;;2.73;;
4355;SDS011;64374;51.482;7.408;2022-12-18T03:48:18;3.10;;;2.53;;
4355;SDS011;64374;51.482;7.408;2022-12-18T03:50:53;4.27;;;2.33;;
4355;SDS011;64374;51.482;7.408;2022-12-18T03:53:28;4.40;;;3.00;;
4355;SDS011;64374;51.482;7.408;2022-12-18T03:56:03;4.93;;;3.73;;
4355;SDS011;64374;51.482;7.408;2022-12-18T03:58:37;3.73;;;3.20;;
4355;SDS011;64374;51.482;7.408;2022-12-18T04:01:30;6.20;;;2.77;;
4355;SDS011;64374;51.482;7.408;2022-12-18T04:04:19;4.53;;;3.23;;
4355;SDS011;64374;51.482;7.408;2022-12-18T04:06:49;3.93;;;2.53;;
4355;SDS011;64374;51.482;7.408;2022-12-18T04:09:19;2.90;;;2.27;;
4355;SDS011;64374;51.482;7.408;2022-12-18T04:11:52;5.53;;;2.93;;
4355;SDS011;64374;51.482;7.408;2022-12-18T04:14:20;3.00;;;2.20;;
4355;SDS011;64374;51.482;7.408;2022-12-18T04:17:02;5.53;;;2.53;;
4355;SDS011;64374;51.482;7.408;2022-12-18T04:19:32;7.63;;;3.10;;
4355;SDS011;64374;51.482;7.408;2022-12-18T04:22:02;5.37;;;3.03;;
4355;SDS011;64374;51.482;7.408;2022-12-18T04:24:41;3.47;;;2.80;;
4355;SDS011;64374;51.482;7.408;2022-12-18T04:27:17;4.37;;;2.70;;
4355;SDS011;64374;51.482;7.408;2022-12-18T04:29:48;5.27;;;3.40;;
4355;SDS011;64374;51.482;7.408;2022-12-18T04:32:19;3.97;;;3.07;;
4355;SDS011;64374;51.482;7.408;2022-12-18T04:34:50;3.93;;;2.90;;
4355;SDS011;64374;51.482;7.408;2022-12-18T04:37:21;4.80;;;3.30;;
4355;SDS011;64374;51.482;7.408;2022-12-18T04:39:50;3.77;;;2.17;;
4355;SDS011;64374;51.482;7.408;2022-12-18T04:42:29;6.63;;;2.90;;
4355;SDS011;64374;51.482;7.408;2022-12-18T04:44:57;5.00;;;3.10;;
4355;SDS011;64374;51.482;7.408;2022-12-18T04:47:26;5.10;;;2.87;;
4355;SDS011;64374;51.482;7.408;2022-12-18T04:49:55;6.53;;;1.90;;
4355;SDS011;64374;51.482;7.408;2022-12-18T04:52:23;1.83;;;1.50;;
4355;SDS011;64374;51.482;7.408;2022-12-18T04:54:52;2.60;;;1.60;;
4355;SDS011;64374;51.482;7.408;2022-12-18T04:57:20;3.13;;;1.77;;
4355;SDS011;64374;51.482;7.408;2022-12-18T04:59:49;2.00;;;1.80;;
4355;SDS011;64374;51.482;7.408;2022-12-18T05:02:19;2.30;;;1.50;;
4355;SDS011;64374;51.482;7.408;2022-12-18T05:04:49;2.53;;;1.87;;
4355;SDS011;64374;51.482;7.408;2022-12-18T05:07:18;2.93;;;1.83;;
4355;SDS011;64374;51.482;7.408;2022-12-18T05:09:48;1.87;;;1.67;;
4355;SDS011;64374;51.482;7.408;2022-12-18T05:12:16;3.07;;;2.43;;
4355;SDS011;64374;51.482;7.408;2022-12-18T05:14:45;2.83;;;2.13;;
4355;SDS011;64374;51.482;7.408;2022-12-18T05:17:19;6.87;;;2.20;;
4355;SDS011;64374;51.482;7.408;2022-12-18T05:19:51;2.57;;;2.13;;
4355;SDS011;64374;51.482;7.408;2022-12-18T05:22:22;5.10;;;2.90;;
4355;SDS011;64374;51.482;7.408;2022-12-18T05:24:52;3.10;;;2.30;;
4355;SDS011;64374;51.482;7.408;2022-12-18T05:27:21;2.63;;;2.00;;
4355;SDS011;64374;51.482;7.408;2022-12-18T05:29:51;5.60;;;2.60;;
4355;SDS011;64374;51.482;7.408;2022-12-18T05:32:19;4.53;;;2.13;;
4355;SDS011;64374;51.482;7.408;2022-12-18T05:34:48;5.10;;;2.37;;
4355;SDS011;64374;51.482;7.408;2022-12-18T05:37:18;5.13;;;2.63;;
4355;SDS011;64374;51.482;7.408;2022-12-18T05:39:47;4.20;;;3.00;;
4355;SDS011;64374;51.482;7.408;2022-12-18T05:42:16;3.30;;;2.70;;
4355;SDS011;64374;51.482;7.408;2022-12-18T05:44:44;3.60;;;2.73;;
4355;SDS011;64374;51.482;7.408;2022-12-18T05:47:13;3.97;;;2.70;;
4355;SDS011;64374;51.482;7.408;2022-12-18T05:49:41;3.70;;;2.23;;
4355;SDS011;64374;51.482;7.408;2022-12-18T05:52:14;5.73;;;3.20;;
4355;SDS011;64374;51.482;7.408;2022-12-18T05:54:42;5.03;;;2.77;;
4355;SDS011;64374;51.482;7.408;2022-12-18T05:57:10;3.57;;;2.20;;
4355;SDS011;64374;51.482;7.408;2022-12-18T05:59:39;3.40;;;2.20;;
4355;SDS011;64374;51.482;7.408;2022-12-18T06:02:10;3.13;;;2.47;;
4355;SDS011;64374;51.482;7.408;2022-12-18T06:04:38;2.50;;;2.20;;
4355;SDS011;64374;51.482;7.408;2022-12-18T06:07:07;4.63;;;2.27;;
4355;SDS011;64374;51.482;7.408;2022-12-18T06:09:36;3.67;;;2.37;;
4355;SDS011;64374;51.482;7.408;2022-12-18T06:12:05;2.73;;;2.27;;
4355;SDS011;64374;51.482;7.408;2022-12-18T06:14:33;4.97;;;3.30;;
4355;SDS011;64374;51.482;7.408;2022-12-18T06:17:02;4.03;;;2.70;;
4355;SDS011;64374;51.482;7.408;2022-12-18T06:19:38;2.13;;;1.93;;
4355;SDS011;64374;51.482;7.408;2022-12-18T06:22:06;3.50;;;2.00;;
4355;SDS011;64374;51.482;7.408;2022-12-18T06:24:34;2.93;;;2.33;;
4355;SDS011;64374;51.482;7.408;2022-12-18T06:27:03;4.83;;;2.47;;
4355;SDS011;64374;51.482;7.408;2022-12-18T06:29:32;4.27;;;2.70;;
4355;SDS011;64374;51.482;7.408;2022-12-18T06:32:04;8.67;;;3.37;;
4355;SDS011;64374;51.482;7.408;2022-12-18T06:34:32;6.17;;;3.23;;
4355;SDS011;64374;51.482;7.408;2022-12-18T06:37:01;6.80;;;2.70;;
4355;SDS011;64374;51.482;7.408;2022-12-18T06:39:29;2.40;;;2.13;;
4355;SDS011;64374;51.482;7.408;2022-12-18T06:41:58;4.57;;;2.27;;
4355;SDS011;64374;51.482;7.408;2022-12-18T06:44:27;5.67;;;2.93;;
4355;SDS011;64374;51.482;7.408;2022-12-18T06:46:56;5.50;;;2.83;;
4355;SDS011;64374;51.482;7.408;2022-12-18T06:49:24;4.13;;;2.40;;
4355;SDS011;64374;51.482;7.408;2022-12-18T06:51:56;5.10;;;2.70;;
4355;SDS011;64374;51.482;7.408;2022-12-18T06:54:27;3.90;;;2.40;;
4355;SDS011;64374;51.482;7.408;2022-12-18T06:56:55;6.43;;;3.20;;
4355;SDS011;64374;51.482;7.408;2022-12-18T06:59:24;6.97;;;3.27;;
4355;SDS011;64374;51.482;7.408;2022-12-18T07:01:56;4.70;;;3.40;;
4355;SDS011;64374;51.482;7.408;2022-12-18T07:04:27;4.50;;;2.23;;
4355;SDS011;64374;51.482;7.408;2022-12-18T07:06:56;4.10;;;2.43;;
4355;SDS011;64374;51.482;7.408;2022-12-18T07:09:24;5.63;;;2.90;;
4355;SDS011;64374;51.482;7.408;2022-12-18T07:11:55;3.20;;;2.27;;
4355;SDS011;64374;51.482;7.408;2022-12-18T07:14:25;5.10;;;2.57;;
4355;SDS011;64374;51.482;7.408;2022-12-18T07:16:57;2.90;;;1.90;;
4355;SDS011;64374;51.482;7.408;2022-12-18T07:19:25;6.30;;;2.73;;
4355;SDS011;64374;51.482;7.408;2022-12-18T07:21:54;4.03;;;2.33;;
4355;SDS011;64374;51.482;7.408;2022-12-18T07:24:23;2.80;;;2.00;;
4355;SDS011;64374;51.482;7.408;2022-12-18T07:26:51;4.63;;;2.70;;
4355;SDS011;64374;51.482;7.408;2022-12-18T07:29:20;5.73;;;2.47;;
4355;SDS011;64374;51.482;7.408;2022-12-18T07:31:48;3.40;;;2.27;;
4355;SDS011;64374;51.482;7.408;2022-12-18T07:34:20;5.90;;;3.67;;
4355;SDS011;64374;51.482;7.408;2022-12-18T07:36:49;3.10;;;2.20;;
4355;SDS011;64374;51.482;7.408;2022-12-18T07:39:17;3.53;;;2.03;;
4355;SDS011;64374;51.482;7.408;2022-12-18T07:41:45;4.70;;;2.87;;
4355;SDS011;64374;51.482;7.408;2022-12-18T07:44:38;6.23;;;2.50;;
4355;SDS011;64374;51.482;7.408;2022-12-18T07:47:07;3.13;;;2.20;;
4355;SDS011;64374;51.482;7.408;2022-12-18T07:49:42;3.10;;;2.40;;
4355;SDS011;64374;51.482;7.408;2022-12-18T07:52:11;2.60;;;2.40;;
4355;SDS011;64374;51.482;7.408;2022-12-18T07:54:39;5.47;;;3.47;;
4355;SDS011;64374;51.482;7.408;2022-12-18T07:57:08;3.33;;;2.13;;
4355;SDS011;64374;51.482;7.408;2022-12-18T07:59:56;2.50;;;2.00;;
4355;SDS011;64374;51.482;7.408;2022-12-18T08:02:25;5.90;;;3.13;;
4355;SDS011;64374;51.482;7.408;2022-12-18T08:05:03;3.70;;;2.40;;
4355;SDS011;64374;51.482;7.408;2022-12-18T08:07:34;4.80;;;2.13;;
4355;SDS011;64374;51.482;7.408;2022-12-18T08:10:03;5.40;;;2.60;;
4355;SDS011;64374;51.482;7.408;2022-12-18T08:12:34;4.73;;;2.77;;
4355;SDS011;64374;51.482;7.408;2022-12-18T08:15:03;3.50;;;2.87;;
4355;SDS011;64374;51.482;7.408;2022-12-18T08:17:32;3.77;;;3.10;;
4355;SDS011;64374;51.482;7.408;2022-12-18T08:20:00;5.97;;;3.07;;
4355;SDS011;64374;51.482;7.408;2022-12-18T08:22:33;4.30;;;3.10;;
4355;SDS011;64374;51.482;7.408;2022-12-18T08:25:04;5.03;;;2.60;;
4355;SDS011;64374;51.482;7.408;2022-12-18T08:27:33;6.20;;;2.70;;
4355;SDS011;64374;51.482;7.408;2022-12-18T08:30:03;6.63;;;2.63;;
4355;SDS011;64374;51.482;7.408;2022-12-18T08:32:33;3.90;;;2.43;;
4355;SDS011;64374;51.482;7.408;2022-12-18T08:35:05;6.13;;;3.00;;
4355;SDS011;64374;51.482;7.408;2022-12-18T08:37:37;7.30;;;2.60;;
4355;SDS011;64374;51.482;7.408;2022-12-18T08:40:14;5.77;;;2.47;;
4355;SDS011;64374;51.482;7.408;2022-12-18T08:42:42;2.83;;;2.30;;
4355;SDS011;64374;51.482;7.408;2022-12-18T08:45:29;5.90;;;2.80;;
4355;SDS011;64374;51.482;7.408;2022-12-18T08:48:01;6.30;;;2.50;;
4355;SDS011;64374;51.482;7.408;2022-12-18T08:50:30;4.47;;;2.83;;
4355;SDS011;64374;51.482;7.408;2022-12-18T08:52:59;4.47;;;2.13;;
4355;SDS011;64374;51.482;7.408;2022-12-18T08:55:28;4.33;;;2.50;;
4355;SDS011;64374;51.482;7.408;2022-12-18T08:57:57;4.63;;;2.40;;
4355;SDS011;64374;51.482;7.408;2022-12-18T09:00:25;3.07;;;2.20;;
4355;SDS011;64374;51.482;7.408;2022-12-18T09:02:53;5.30;;;2.93;;
4355;SDS011;64374;51.482;7.408;2022-12-18T09:05:24;4.23;;;2.60;;
4355;SDS011;64374;51.482;7.408;2022-12-18T09:07:54;3.40;;;2.30;;
4355;SDS011;64374;51.482;7.408;2022-12-18T09:10:23;2.93;;;2.10;;
4355;SDS011;64374;51.482;7.408;2022-12-18T09:12:51;7.20;;;1.90;;
4355;SDS011;64374;51.482;7.408;2022-12-18T09:15:20;2.73;;;2.30;;
4355;SDS011;64374;51.482;7.408;2022-12-18T09:17:49;2.93;;;2.40;;
4355;SDS011;64374;51.482;7.408;2022-12-18T09:20:19;3.17;;;2.17;;
4355;SDS011;64374;51.482;7.408;2022-12-18T09:22:47;4.23;;;2.70;;
4355;SDS011;64374;51.482;7.408;2022-12-18T09:25:17;2.80;;;2.17;;
4355;SDS011;64374;51.482;7.408;2022-12-18T09:27:49;5.07;;;2.17;;
4355;SDS011;64374;51.482;7.408;2022-12-18T09:30:17;3.57;;;2.53;;
4355;SDS011;64374;51.482;7.408;2022-12-18T09:32:48;2.27;;;2.07;;
4355;SDS011;64374;51.482;7.408;2022-12-18T09:35:16;2.90;;;1.90;;
4355;SDS011;64374;51.482;7.408;2022-12-18T09:37:45;6.10;;;2.43;;
4355;SDS011;64374;51.482;7.408;2022-12-18T09:40:13;2.87;;;2.47;;
4355;SDS011;64374;51.482;7.408;2022-12-18T09:42:47;3.53;;;1.90;;
4355;SDS011;64374;51.482;7.408;2022-12-18T09:45:18;3.57;;;2.33;;
4355;SDS011;64374;51.482;7.408;2022-12-18T09:47:54;3.73;;;2.47;;
4355;SDS011;64374;51.482;7.408;2022-12-18T09:50:24;2.50;;;2.10;;
4355;SDS011;64374;51.482;7.408;2022-12-18T09:52:57;5.07;;;2.63;;
4355;SDS011;64374;51.482;7.408;2022-12-18T09:55:33;3.10;;;2.40;;
4355;SDS011;64374;51.482;7.408;2022-12-18T09:58:13;5.50;;;2.37;;
4355;SDS011;64374;51.482;7.408;2022-12-18T10:00:44;5.07;;;2.70;;
4355;SDS011;64374;51.482;7.408;2022-12-18T10:03:14;3.90;;;2.30;;
4355;SDS011;64374;51.482;7.408;2022-12-18T10:05:44;4.00;;;2.23;;
4355;SDS011;64374;51.482;7.408;2022-12-18T10:08:21;3.93;;;2.20;;
4355;SDS011;64374;51.482;7.408;2022-12-18T10:11:01;3.27;;;2.03;;
4355;SDS011;64374;51.482;7.408;2022-12-18T10:13:45;3.90;;;2.27;;
4355;SDS011;64374;51.482;7.408;2022-12-18T10:16:27;4.37;;;2.23;;
4355;SDS011;64374;51.482;7.408;2022-12-18T10:19:08;2.57;;;2.10;;
4355;SDS011;64374;51.482;7.408;2022-12-18T10:21:48;4.15;;;2.65;;
4355;SDS011;64374;51.482;7.408;2022-12-18T10:24:26;2.80;;;2.23;;
4355;SDS011;64374;51.482;7.408;2022-12-18T10:27:06;3.77;;;2.27;;
4355;SDS011;64374;51.482;7.408;2022-12-18T10:29:43;2.80;;;2.30;;
4355;SDS011;64374;51.482;7.408;2022-12-18T10:32:14;4.57;;;2.47;;
4355;SDS011;64374;51.482;7.408;2022-12-18T10:34:56;3.93;;;2.30;;
4355;SDS011;64374;51.482;7.408;2022-12-18T10:37:28;2.47;;;1.60;;
4355;SDS011;64374;51.482;7.408;2022-12-18T10:40:11;3.00;;;1.90;;
4355;SDS011;64374;51.482;7.408;2022-12-18T10:42:55;2.57;;;2.07;;
4355;SDS011;64374;51.482;7.408;2022-12-18T10:45:33;3.20;;;1.70;;
4355;SDS011;64374;51.482;7.408;2022-12-18T10:48:17;5.00;;;2.60;;
4355;SDS011;64374;51.482;7.408;2022-12-18T10:50:48;5.83;;;2.10;;
4355;SDS011;64374;51.482;7.408;2022-12-18T10:53:40;4.93;;;2.60;;
4355;SDS011;64374;51.482;7.408;2022-12-18T10:56:24;5.07;;;2.23;;
4355;SDS011;64374;51.482;7.408;2022-12-18T10:58:58;2.40;;;2.20;;
4355;SDS011;64374;51.482;7.408;2022-12-18T11:01:44;2.93;;;2.07;;
4355;SDS011;64374;51.482;7.408;2022-12-18T11:04:19;3.60;;;2.43;;
4355;SDS011;64374;51.482;7.408;2022-12-18T11:06:52;2.50;;;2.10;;
4355;SDS011;64374;51.482;7.408;2022-12-18T11:09:23;4.23;;;2.30;;
4355;SDS011;64374;51.482;7.408;2022-12-18T11:11:54;4.07;;;2.40;;
4355;SDS011;64374;51.482;7.408;2022-12-18T11:14:27;2.10;;;1.77;;
4355;SDS011;64374;51.482;7.408;2022-12-18T11:16:59;2.73;;;2.03;;
4355;SDS011;64374;51.482;7.408;2022-12-18T11:19:54;3.23;;;1.90;;
4355;SDS011;64374;51.482;7.408;2022-12-18T11:22:25;4.43;;;1.90;;
4355;SDS011;64374;51.482;7.408;2022-12-18T11:24:58;3.93;;;2.50;;
4355;SDS011;64374;51.482;7.408;2022-12-18T11:27:52;5.83;;;2.17;;
4355;SDS011;64374;51.482;7.408;2022-12-18T11:30:24;3.63;;;2.60;;
4355;SDS011;64374;51.482;7.408;2022-12-18T11:33:00;1.50;;;1.40;;
4355;SDS011;64374;51.482;7.408;2022-12-18T11:38:21;1.90;;;1.77;;
4355;SDS011;64374;51.482;7.408;2022-12-18T11:40:55;5.00;;;2.40;;
4355;SDS011;64374;51.482;7.408;2022-12-18T11:43:29;3.20;;;1.90;;
4355;SDS011;64374;51.482;7.408;2022-12-18T11:46:02;3.47;;;2.20;;
4355;SDS011;64374;51.482;7.408;2022-12-18T11:48:49;3.20;;;2.10;;
4355;SDS011;64374;51.482;7.408;2022-12-18T11:51:26;3.50;;;3.10;;
4355;SDS011;64374;51.482;7.408;2022-12-18T11:53:57;6.13;;;3.00;;
4355;SDS011;64374;51.482;7.408;2022-12-18T11:56:29;5.27;;;2.73;;
4355;SDS011;64374;51.482;7.408;2022-12-18T11:59:03;4.23;;;2.90;;
4355;SDS011;64374;51.482;7.408;2022-12-18T12:01:44;6.23;;;3.17;;
4355;SDS011;64374;51.482;7.408;2022-12-18T12:04:30;9.80;;;2.97;;
4355;SDS011;64374;51.482;7.408;2022-12-18T12:07:19;2.67;;;2.37;;
4355;SDS011;64374;51.482;7.408;2022-12-18T12:09:55;4.77;;;2.60;;
4355;SDS011;64374;51.482;7.408;2022-12-18T12:12:36;4.60;;;2.60;;
4355;SDS011;64374;51.482;7.408;2022-12-18T12:15:22;6.87;;;2.63;;
4355;SDS011;64374;51.482;7.408;2022-12-18T12:18:05;5.30;;;1.80;;
4355;SDS011;64374;51.482;7.408;2022-12-18T12:20:47;3.43;;;2.40;;
4355;SDS011;64374;51.482;7.408;2022-12-18T12:23:23;5.73;;;3.07;;
4355;SDS011;64374;51.482;7.408;2022-12-18T12:26:01;4.60;;;2.00;;
4355;SDS011;64374;51.482;7.408;2022-12-18T12:28:50;6.30;;;2.50;;
4355;SDS011;64374;51.482;7.408;2022-12-18T12:34:26;3.57;;;2.37;;
4355;SDS011;64374;51.482;7.408;2022-12-18T12:37:10;7.00;;;2.40;;
4355;SDS011;64374;51.482;7.408;2022-12-18T12:39:50;3.57;;;2.20;;
4355;SDS011;64374;51.482;7.408;2022-12-18T12:42:24;5.10;;;2.37;;
4355;SDS011;64374;51.482;7.408;2022-12-18T12:45:18;3.83;;;2.30;;
4355;SDS011;64374;51.482;7.408;2022-12-18T12:47:52;4.23;;;2.60;;
4355;SDS011;64374;51.482;7.408;2022-12-18T12:50:22;4.57;;;2.70;;
4355;SDS011;64374;51.482;7.408;2022-12-18T12:52:54;9.83;;;3.00;;
4355;SDS011;64374;51.482;7.408;2022-12-18T12:55:27;4.20;;;2.87;;
4355;SDS011;64374;51.482;7.408;2022-12-18T12:57:58;11.27;;;2.57;;
4355;SDS011;64374;51.482;7.408;2022-12-18T13:00:36;3.90;;;2.37;;
4355;SDS011;64374;51.482;7.408;2022-12-18T13:03:12;3.57;;;2.80;;
4355;SDS011;64374;51.482;7.408;2022-12-18T13:05:49;8.20;;;3.50;;
4355;SDS011;64374;51.482;7.408;2022-12-18T13:08:25;4.13;;;2.70;;
4355;SDS011;64374;51.482;7.408;2022-12-18T13:11:16;5.30;;;2.93;;
4355;SDS011;64374;51.482;7.408;2022-12-18T13:14:29;8.30;;;3.70;;
4355;SDS011;64374;51.482;7.408;2022-12-18T13:20:08;9.80;;;3.70;;
4355;SDS011;64374;51.482;7.408;2022-12-18T13:22:40;3.83;;;2.80;;
4355;SDS011;64374;51.482;7.408;2022-12-18T13:28:07;4.17;;;2.77;;
4355;SDS011;64374;51.482;7.408;2022-12-18T13:30:43;6.30;;;3.30;;
4355;SDS011;64374;51.482;7.408;2022-12-18T13:33:37;5.07;;;3.30;;
4355;SDS011;64374;51.482;7.408;2022-12-18T13:36:29;7.63;;;3.00;;
4355;SDS011;64374;51.482;7.408;2022-12-18T13:39:20;12.77;;;4.10;;
4355;SDS011;64374;51.482;7.408;2022-12-18T13:45:43;6.23;;;3.90;;
4355;SDS011;64374;51.482;7.408;2022-12-18T13:48:17;13.50;;;4.70;;
4355;SDS011;64374;51.482;7.408;2022-12-18T13:50:48;7.83;;;4.37;;
4355;SDS011;64374;51.482;7.408;2022-12-18T13:53:24;6.17;;;4.33;;
4355;SDS011;64374;51.482;7.408;2022-12-18T13:55:56;8.63;;;4.80;;
4355;SDS011;64374;51.482;7.408;2022-12-18T13:58:28;10.30;;;5.20;;
4355;SDS011;64374;51.482;7.408;2022-12-18T14:00:57;9.70;;;4.87;;
4355;SDS011;64374;51.482;7.408;2022-12-18T14:03:28;7.30;;;4.80;;
4355;SDS011;64374;51.482;7.408;2022-12-18T14:06:05;9.03;;;5.10;;
4355;SDS011;64374;51.482;7.408;2022-12-18T14:08:37;6.60;;;4.70;;
4355;SDS011;64374;51.482;7.408;2022-12-18T14:11:17;8.63;;;5.13;;
4355;SDS011;64374;51.482;7.408;2022-12-18T14:13:49;7.53;;;4.50;;
4355;SDS011;64374;51.482;7.408;2022-12-18T14:16:21;7.93;;;4.93;;
4355;SDS011;64374;51.482;7.408;2022-12-18T14:18:51;10.67;;;6.10;;
4355;SDS011;64374;51.482;7.408;2022-12-18T14:21:41;12.20;;;6.73;;
4355;SDS011;64374;51.482;7.408;2022-12-18T14:24:15;13.60;;;6.63;;
4355;SDS011;64374;51.482;7.408;2022-12-18T14:26:45;9.23;;;5.07;;
4355;SDS011;64374;51.482;7.408;2022-12-18T14:29:24;7.77;;;4.87;;
4355;SDS011;64374;51.482;7.408;2022-12-18T14:32:09;8.80;;;5.17;;
4355;SDS011;64374;51.482;7.408;2022-12-18T14:34:44;7.87;;;5.50;;
4355;SDS011;64374;51.482;7.408;2022-12-18T14:37:14;8.33;;;5.07;;
4355;SDS011;64374;51.482;7.408;2022-12-18T14:39:51;9.73;;;5.17;;
4355;SDS011;64374;51.482;7.408;2022-12-18T14:42:22;6.87;;;5.27;;
4355;SDS011;64374;51.482;7.408;2022-12-18T14:48:11;9.30;;;5.50;;
4355;SDS011;64374;51.482;7.408;2022-12-18T14:50:56;6.70;;;4.70;;
4355;SDS011;64374;51.482;7.408;2022-12-18T14:53:31;10.17;;;5.60;;
4355;SDS011;64374;51.482;7.408;2022-12-18T14:56:19;10.50;;;6.70;;
4355;SDS011;64374;51.482;7.408;2022-12-18T14:58:50;9.30;;;5.73;;
4355;SDS011;64374;51.482;7.408;2022-12-18T15:01:24;9.43;;;5.57;;
4355;SDS011;64374;51.482;7.408;2022-12-18T15:03:55;11.97;;;6.30;;
4355;SDS011;64374;51.482;7.408;2022-12-18T15:06:27;7.30;;;5.47;;
4355;SDS011;64374;51.482;7.408;2022-12-18T15:09:01;7.43;;;5.50;;
4355;SDS011;64374;51.482;7.408;2022-12-18T15:11:32;11.73;;;5.80;;
4355;SDS011;64374;51.482;7.408;2022-12-18T15:16:53;13.10;;;7.23;;
4355;SDS011;64374;51.482;7.408;2022-12-18T15:19:27;10.63;;;6.40;;
4355;SDS011;64374;51.482;7.408;2022-12-18T15:22:02;13.03;;;7.50;;
4355;SDS011;64374;51.482;7.408;2022-12-18T15:24:32;10.37;;;6.40;;
4355;SDS011;64374;51.482;7.408;2022-12-18T15:27:01;13.07;;;7.47;;
4355;SDS011;64374;51.482;7.408;2022-12-18T15:29:32;14.83;;;7.57;;
4355;SDS011;64374;51.482;7.408;2022-12-18T15:32:03;11.97;;;6.33;;
4355;SDS011;64374;51.482;7.408;2022-12-18T15:34:32;14.47;;;6.80;;
4355;SDS011;64374;51.482;7.408;2022-12-18T15:37:01;20.77;;;9.50;;
4355;SDS011;64374;51.482;7.408;2022-12-18T15:39:32;15.30;;;8.70;;
4355;SDS011;64374;51.482;7.408;2022-12-18T15:42:02;11.67;;;6.90;;
4355;SDS011;64374;51.482;7.408;2022-12-18T15:44:48;12.63;;;7.33;;
4355;SDS011;64374;51.482;7.408;2022-12-18T15:47:18;13.67;;;7.13;;
4355;SDS011;64374;51.482;7.408;2022-12-18T15:49:46;9.90;;;6.50;;
4355;SDS011;64374;51.482;7.408;2022-12-18T15:52:15;13.07;;;6.90;;
4355;SDS011;64374;51.482;7.408;2022-12-18T15:54:52;13.30;;;8.27;;
4355;SDS011;64374;51.482;7.408;2022-12-18T15:57:38;14.87;;;8.47;;